createdAt,value
2024-01-16T00:02:18.594Z,45.16
2024-01-16T00:05:20.823Z,45.92
2024-01-16T00:07:52.544Z,45.51
2024-01-16T00:10:22.952Z,45.79
2024-01-16T00:12:52.798Z,45.96
2024-01-16T00:16:07.213Z,45.73
2024-01-16T00:24:56.783Z,45.76
2024-01-16T00:27:27.139Z,45.84
2024-01-16T00:30:00.617Z,45.84
2024-01-16T00:32:29.962Z,45.92
2024-01-16T00:35:13.100Z,46.08
2024-01-16T00:37:44.218Z,46.52
2024-01-16T00:40:14.054Z,46.28
2024-01-16T00:42:45.422Z,46.06
2024-01-16T00:45:14.657Z,46.26
2024-01-16T00:47:44.402Z,46.19
2024-01-16T00:50:15.661Z,46.01
2024-01-16T00:52:46.706Z,46.27
2024-01-16T00:55:15.941Z,46.11
2024-01-16T00:57:45.443Z,46.27
2024-01-16T01:00:17.415Z,46.40
2024-01-16T01:02:46.242Z,46.16
2024-01-16T01:05:18.243Z,46.42
2024-01-16T01:07:53.216Z,46.75
2024-01-16T01:10:22.131Z,46.57
2024-01-16T01:12:53.195Z,46.29
2024-01-16T01:15:36.679Z,46.46
2024-01-16T01:18:08.923Z,46.38
2024-01-16T01:20:44.457Z,46.49
2024-01-16T01:23:40.099Z,46.75
2024-01-16T01:26:11.623Z,46.19
2024-01-16T01:28:44.541Z,46.44
2024-01-16T01:31:14.645Z,46.58
2024-01-16T01:33:44.313Z,46.54
2024-01-16T01:36:12.937Z,46.72
2024-01-16T01:38:43.224Z,46.40
2024-01-16T01:41:13.320Z,46.79
2024-01-16T01:43:43.816Z,46.45
2024-01-16T01:46:19.088Z,46.70
2024-01-16T01:48:53.342Z,46.57
2024-01-16T01:51:22.020Z,46.80
2024-01-16T01:53:54.289Z,46.85
2024-01-16T01:56:24.674Z,46.80
2024-01-16T01:59:03.273Z,46.27
2024-01-16T02:01:35.764Z,46.81
2024-01-16T02:04:06.367Z,46.71
2024-01-16T02:06:35.506Z,46.83
2024-01-16T02:09:11.746Z,47.16
2024-01-16T02:11:40.980Z,46.88
2024-01-16T02:20:18.072Z,46.96
2024-01-16T02:28:36.510Z,47.26
2024-01-16T02:31:08.296Z,47.33
2024-01-16T02:33:39.979Z,47.07
2024-01-16T02:39:14.253Z,47.11
2024-01-16T02:42:05.449Z,47.30
2024-01-16T02:44:36.771Z,47.15
2024-01-16T02:47:11.660Z,46.97
2024-01-16T02:49:46.640Z,46.99
2024-01-16T02:52:16.397Z,47.05
2024-01-16T02:54:47.615Z,47.09
2024-01-16T02:57:21.911Z,46.96
2024-01-16T02:59:54.614Z,47.12
2024-01-16T03:02:24.871Z,47.13
2024-01-16T03:04:55.667Z,47.04
2024-01-16T03:07:26.297Z,47.12
2024-01-16T03:09:55.295Z,46.81
2024-01-16T03:12:27.441Z,47.15
2024-01-16T03:14:58.006Z,46.91
2024-01-16T03:17:28.206Z,47.03
2024-01-16T03:20:05.743Z,47.02
2024-01-16T03:22:34.682Z,47.10
2024-01-16T03:25:04.823Z,47.13
2024-01-16T03:27:35.267Z,46.93
2024-01-16T03:35:46.729Z,47.05
2024-01-16T03:41:01.793Z,47.32
2024-01-16T03:43:41.011Z,47.16
2024-01-16T03:46:10.697Z,47.11
2024-01-16T03:48:42.318Z,46.99
2024-01-16T03:57:26.143Z,47.17
2024-01-16T04:00:26.818Z,47.21
2024-01-16T04:03:19.074Z,46.79
2024-01-16T04:05:55.048Z,46.86
2024-01-16T04:08:27.772Z,46.91
2024-01-16T04:10:58.112Z,46.89
2024-01-16T04:13:41.121Z,46.82
2024-01-16T04:16:12.083Z,46.95
2024-01-16T04:18:47.060Z,47.03
2024-01-16T04:21:20.927Z,46.70
2024-01-16T04:23:50.716Z,46.76
2024-01-16T04:26:22.213Z,46.73
2024-01-16T04:28:53.944Z,46.75
2024-01-16T04:31:24.552Z,46.70
2024-01-16T04:34:37.838Z,46.82
2024-01-16T04:37:50.896Z,46.70
2024-01-16T04:40:33.525Z,46.66
2024-01-16T04:46:14.607Z,46.49
2024-01-16T04:55:05.975Z,46.36
2024-01-16T04:58:18.504Z,46.48
2024-01-16T05:01:21.031Z,46.42
2024-01-16T05:10:06.416Z,46.59
2024-01-16T05:12:38.372Z,46.46
2024-01-16T05:18:35.632Z,46.43
2024-01-16T05:21:13.856Z,46.41
2024-01-16T05:23:50.492Z,46.26
2024-01-16T05:26:20.782Z,46.28
2024-01-16T05:29:13.247Z,45.85
2024-01-16T05:38:07.400Z,45.86
2024-01-16T05:40:42.783Z,46.14
2024-01-16T05:43:22.943Z,46.12
2024-01-16T05:48:40.258Z,46.03
2024-01-16T05:51:17.474Z,46.04
2024-01-16T05:53:52.009Z,46.28
2024-01-16T05:56:23.235Z,46.19
2024-01-16T05:58:54.163Z,46.06
2024-01-16T06:01:30.195Z,45.79
2024-01-16T06:07:04.233Z,46.10
2024-01-16T06:09:48.244Z,46.18
2024-01-16T06:12:28.612Z,46.16
2024-01-16T06:15:16.897Z,46.08
2024-01-16T06:17:52.423Z,45.89
2024-01-16T06:23:57.527Z,45.69
2024-01-16T06:26:59.769Z,45.95
2024-01-16T06:32:41.490Z,45.75
2024-01-16T06:38:17.055Z,45.49
2024-01-16T06:41:01.580Z,45.60
2024-01-16T06:43:54.570Z,45.15
2024-01-16T06:52:24.260Z,45.58
2024-01-16T06:55:01.774Z,45.50
2024-01-16T06:57:34.969Z,45.68
2024-01-16T07:00:19.100Z,45.91
2024-01-16T07:03:07.962Z,45.79
2024-01-16T07:05:52.596Z,45.80
2024-01-16T07:08:34.621Z,45.59
2024-01-16T07:14:13.600Z,45.65
2024-01-16T07:17:05.062Z,45.51
2024-01-16T07:22:37.015Z,45.70
2024-01-16T07:28:22.724Z,45.58
2024-01-16T07:31:05.788Z,45.54
2024-01-16T07:34:25.596Z,45.77
2024-01-16T07:40:57.450Z,45.46
2024-01-16T07:43:55.301Z,45.50
2024-01-16T07:49:24.894Z,45.59
2024-01-16T07:51:55.220Z,45.58
2024-01-16T07:54:25.873Z,45.46
2024-01-16T07:57:03.279Z,45.22
2024-01-16T07:59:39.886Z,45.37
2024-01-16T08:02:29.322Z,45.36
2024-01-16T08:51:54.147Z,45.91
2024-01-16T08:54:41.172Z,45.29
2024-01-16T08:57:18.430Z,45.21
2024-01-16T08:59:54.882Z,45.30
2024-01-16T09:02:30.639Z,45.11
2024-01-16T09:05:45.965Z,45.09
2024-01-16T09:08:40.238Z,45.10
2024-01-16T09:16:38.270Z,44.83
2024-01-16T09:22:22.681Z,44.57
2024-01-16T09:28:18.602Z,44.54
2024-01-16T09:30:48.966Z,45.03
2024-01-16T09:36:01.691Z,44.70
2024-01-16T09:38:32.560Z,44.60
2024-01-16T09:41:04.874Z,44.61
2024-01-16T09:43:38.479Z,44.69
2024-01-16T09:46:09.904Z,44.76
2024-01-16T09:48:38.947Z,44.90
2024-01-16T09:51:09.275Z,44.87
2024-01-16T09:53:39.988Z,44.74
2024-01-16T09:56:14.852Z,44.63
2024-01-16T09:58:47.061Z,44.68
2024-01-16T10:01:17.199Z,44.68
2024-01-16T10:03:50.374Z,44.64
2024-01-16T10:06:22.866Z,44.72
2024-01-16T10:08:52.520Z,44.45
2024-01-16T10:11:22.257Z,44.31
2024-01-16T10:13:54.806Z,44.49
2024-01-16T10:16:26.081Z,44.74
2024-01-16T10:19:10.076Z,44.52
2024-01-16T10:21:38.932Z,44.37
2024-01-16T10:24:14.266Z,44.37
2024-01-16T10:27:02.659Z,44.30
2024-01-16T10:29:43.408Z,44.35
2024-01-16T10:32:31.681Z,44.38
2024-01-16T10:35:09.814Z,44.33
2024-01-16T10:37:45.767Z,44.26
2024-01-16T10:40:22.499Z,44.37
2024-01-16T10:43:01.583Z,44.09
2024-01-16T10:45:34.018Z,44.31
2024-01-16T10:48:08.724Z,43.98
2024-01-16T10:50:38.977Z,43.97
2024-01-16T10:53:10.081Z,44.08
2024-01-16T10:55:52.230Z,44.17
2024-01-16T10:58:24.316Z,44.15
2024-01-16T11:00:57.314Z,43.96
2024-01-16T11:03:32.051Z,44.04
2024-01-16T11:06:02.247Z,44.00
2024-01-16T11:08:48.014Z,43.83
2024-01-16T11:11:19.348Z,43.67
2024-01-16T11:13:50.111Z,43.98
2024-01-16T11:16:25.515Z,43.60
2024-01-16T11:33:54.953Z,43.20
2024-01-16T12:05:27.574Z,42.81
2024-01-16T20:07:07.938Z,42.23
2024-01-16T22:28:02.059Z,44.39
